Zarate, Argentina
Current Conditions -  °F | °C
As of 5:00 AM on Saturday 22 Nov 2014 (Local Time) from SADF Reporting Station
Clear Clear  
Wind Chill: 14°   Ceiling: Unl
Heat Index: 14°   Visibility: 6mi
Dew Point: 14°   Wind: 7mph
Humidity: 100%   Direction: 230°SW
Pressure: 29.88"   Gusts: NA
Location:  34.09°S, 59.04°W
Report Text: SADF 220800Z 23006KT CAVOK 14/14 Q1012
Loading
Personal Weather Stations






























Interactive Weather Map New forecast layout! Learn more

10-Day Weather Forecast

Advertisements
Track Severe Weather on mobile